Time;durP1;ratioP1;P1;durP2;ratioP2;P2;SDS_P1;SDS_P2;PMS_P1;PMS_P2;Temp;Humidity;BMP_temperature;BMP_pressure;BME280_temperature;BME280_humidity;BME280_pressure;Samples;Min_cycle;Max_cycle;Signal;HPM_P1;HPM_P2
2023/03/21 00:02:02;;;;;;;48.40;16.35;;;9.20;99.90;;;;;;5063144;28;20169;-82
2023/03/21 00:04:27;;;;;;;55.38;17.05;;;9.20;99.90;;;;;;5055908;28;20043;-80
2023/03/21 00:06:53;;;;;;;53.72;15.02;;;9.20;99.90;;;;;;5066026;28;20492;-81
2023/03/21 00:09:20;;;;;;;51.25;15.75;;;9.20;99.90;;;;;;5063329;28;20080;-81
2023/03/21 00:11:46;;;;;;;50.10;14.45;;;9.20;99.90;;;;;;5086236;28;20469;-83
2023/03/21 00:14:14;;;;;;;56.35;16.02;;;9.20;99.90;;;;;;5046650;28;20056;-81
2023/03/21 00:16:40;;;;;;;62.17;17.27;;;9.20;99.90;;;;;;5066400;28;20485;-81
2023/03/21 00:19:08;;;;;;;80.28;20.02;;;9.20;99.90;;;;;;5063969;28;20051;-81
2023/03/21 00:21:37;;;;;;;92.05;21.27;;;9.20;99.90;;;;;;5067862;28;20127;-81
2023/03/21 00:24:04;;;;;;;105.05;22.50;;;9.20;99.90;;;;;;5075651;28;20048;-81
2023/03/21 00:26:30;;;;;;;119.57;23.15;;;9.20;99.90;;;;;;5065931;28;20100;-80
2023/03/21 00:28:56;;;;;;;108.43;23.63;;;9.20;99.90;;;;;;5068177;28;20052;-81
2023/03/21 00:31:22;;;;;;;110.53;24.27;;;9.20;99.90;;;;;;5072939;28;20477;-81
2023/03/21 00:33:48;;;;;;;108.35;24.20;;;9.20;99.90;;;;;;5080993;28;20075;-81
2023/03/21 00:36:14;;;;;;;114.70;23.65;;;9.30;99.90;;;;;;5055455;28;20063;-83
2023/03/21 00:38:40;;;;;;;105.85;24.45;;;9.30;99.90;;;;;;5080722;28;20055;-81
2023/03/21 00:41:07;;;;;;;103.53;24.88;;;9.30;99.90;;;;;;5063854;28;20043;-83
2023/03/21 00:43:33;;;;;;;117.30;25.70;;;9.30;99.90;;;;;;5078517;28;20083;-82
2023/03/21 00:45:59;;;;;;;139.05;27.25;;;9.20;99.90;;;;;;5069396;28;20094;-81
2023/03/21 00:48:26;;;;;;;116.60;27.33;;;9.20;99.90;;;;;;5088755;28;20044;-81
2023/03/21 00:50:54;;;;;;;100.00;25.20;;;9.30;99.90;;;;;;5074588;28;20554;-81
2023/03/21 00:53:20;;;;;;;97.65;22.77;;;9.20;99.90;;;;;;5077687;28;20060;-81
2023/03/21 00:55:46;;;;;;;115.07;25.98;;;9.30;99.90;;;;;;5078862;28;20044;-82
2023/03/21 00:58:12;;;;;;;114.85;27.38;;;9.20;99.90;;;;;;5071731;28;20495;-81
2023/03/21 01:00:38;;;;;;;105.35;27.63;;;9.30;99.90;;;;;;5086239;28;20040;-80
2023/03/21 01:03:06;;;;;;;100.70;25.67;;;9.20;99.90;;;;;;5078020;28;20052;-81
2023/03/21 01:08:22;;;;;;;106.13;26.58;;;9.30;99.90;;;;;;5082243;28;20036;-82
2023/03/21 01:10:50;;;;;;;127.95;29.35;;;9.30;99.90;;;;;;5075087;28;20040;-81
2023/03/21 01:13:17;;;;;;;106.65;27.38;;;9.20;99.90;;;;;;5055926;28;20043;-81
2023/03/21 01:15:50;;;;;;;91.82;24.88;;;9.30;99.90;;;;;;5081233;28;20056;-81
2023/03/21 01:18:17;;;;;;;105.22;27.38;;;9.30;99.90;;;;;;5069726;28;20043;-80
2023/03/21 01:20:44;;;;;;;111.38;28.52;;;9.20;99.90;;;;;;5071702;28;20131;-82
2023/03/21 01:23:11;;;;;;;112.68;28.02;;;9.20;99.90;;;;;;5079288;28;20040;-83
2023/03/21 01:25:37;;;;;;;114.70;28.98;;;9.30;99.90;;;;;;5060995;28;20048;-81
2023/03/21 01:28:04;;;;;;;118.35;27.85;;;9.30;99.90;;;;;;5076172;28;20405;-81
2023/03/21 01:30:30;;;;;;;108.50;27.88;;;9.20;99.90;;;;;;5060277;28;20569;-81
2023/03/21 01:32:56;;;;;;;94.07;25.90;;;9.20;99.90;;;;;;5068593;28;20040;-81
2023/03/21 01:35:22;;;;;;;87.85;25.42;;;9.20;99.90;;;;;;5052820;28;20504;-81
2023/03/21 01:37:49;;;;;;;90.60;25.90;;;9.30;99.90;;;;;;5069450;28;20040;-81
2023/03/21 01:40:24;;;;;;;84.18;24.63;;;9.30;99.90;;;;;;5070529;28;20139;-81
2023/03/21 01:42:50;;;;;;;72.63;23.33;;;9.30;99.90;;;;;;5075177;28;20147;-81
2023/03/21 01:45:53;;;;;;;84.25;23.83;;;9.20;99.90;;;;;;5069330;28;20533;-81
2023/03/21 01:48:21;;;;;;;76.80;21.08;;;9.30;99.90;;;;;;5091009;28;20040;-84
2023/03/21 01:50:48;;;;;;;82.75;22.48;;;9.20;99.90;;;;;;5061247;28;20044;-81
2023/03/21 01:53:14;;;;;;;62.10;19.05;;;9.30;99.90;;;;;;5079908;28;20877;-82
2023/03/21 01:55:40;;;;;;;61.08;18.77;;;9.20;99.90;;;;;;5087808;28;20040;-81
2023/03/21 01:58:09;;;;;;;73.38;21.10;;;9.20;99.90;;;;;;5095833;28;20040;-85
2023/03/21 02:00:36;;;;;;;76.55;21.70;;;9.30;99.90;;;;;;5086961;28;20041;-81
2023/03/21 02:03:07;;;;;;;71.93;21.25;;;9.30;99.90;;;;;;5069609;28;20112;-81
2023/03/21 02:05:57;;;;;;;72.18;20.58;;;9.30;99.90;;;;;;5069444;28;20048;-81
2023/03/21 02:08:23;;;;;;;80.88;22.73;;;9.30;99.90;;;;;;5088027;28;20495;-82
2023/03/21 02:10:50;;;;;;;76.15;21.10;;;9.30;99.90;;;;;;5090009;28;20126;-82
2023/03/21 02:13:16;;;;;;;70.30;20.83;;;9.30;99.90;;;;;;5062983;28;20503;-81
2023/03/21 02:15:48;;;;;;;74.00;20.85;;;9.30;99.90;;;;;;5063869;28;20039;-82
2023/03/21 02:18:34;;;;;;;74.80;22.02;;;9.30;99.90;;;;;;5052727;28;20471;-81
2023/03/21 02:21:28;;;;;;;74.88;22.55;;;9.30;99.90;;;;;;5069758;28;20081;-80
2023/03/21 02:24:02;;;;;;;77.15;21.95;;;9.30;99.90;;;;;;5087549;28;20079;-80
2023/03/21 02:26:40;;;;;;;73.13;21.60;;;9.30;99.90;;;;;;5067322;28;20101;-80
2023/03/21 02:29:28;;;;;;;71.05;21.38;;;9.30;99.90;;;;;;5077776;28;20087;-80
2023/03/21 02:32:17;;;;;;;69.93;21.27;;;9.30;99.90;;;;;;5056963;28;20057;-85
2023/03/21 02:34:49;;;;;;;72.10;21.48;;;9.30;99.90;;;;;;5082963;28;20051;-86
2023/03/21 02:37:20;;;;;;;62.53;19.10;;;9.30;99.90;;;;;;5085398;28;20045;-80
2023/03/21 02:40:09;;;;;;;67.38;20.88;;;9.30;99.90;;;;;;5067591;28;20127;-80
2023/03/21 02:42:47;;;;;;;67.47;20.80;;;9.30;99.90;;;;;;5060592;28;20150;-81
2023/03/21 02:45:22;;;;;;;66.03;20.50;;;9.30;99.90;;;;;;5050662;28;20387;-81
2023/03/21 02:48:25;;;;;;;72.72;21.25;;;9.30;99.90;;;;;;5071724;28;20048;-80
2023/03/21 02:50:55;;;;;;;58.97;18.10;;;9.30;99.90;;;;;;5031712;28;20131;-81
2023/03/21 02:53:24;;;;;;;60.35;19.13;;;9.30;99.90;;;;;;5068029;28;20047;-81
2023/03/21 02:55:52;;;;;;;65.65;20.60;;;9.30;99.90;;;;;;5064573;28;20397;-82
2023/03/21 02:58:21;;;;;;;55.80;18.23;;;9.20;99.90;;;;;;5051869;28;20060;-84
2023/03/21 03:00:48;;;;;;;68.68;20.55;;;9.20;99.90;;;;;;5065309;28;20068;-82
2023/03/21 03:03:14;;;;;;;66.93;20.10;;;9.20;99.90;;;;;;5048341;28;20535;-84
2023/03/21 03:05:45;;;;;;;57.97;18.38;;;9.30;99.90;;;;;;5067804;28;20083;-80
2023/03/21 03:08:28;;;;;;;62.13;19.77;;;9.30;99.90;;;;;;5071789;28;20045;-81
2023/03/21 03:11:24;;;;;;;58.30;19.50;;;9.20;99.90;;;;;;5061258;28;20182;-82
2023/03/21 03:14:11;;;;;;;61.15;20.10;;;9.30;99.90;;;;;;5073972;28;20064;-81
2023/03/21 03:17:08;;;;;;;54.25;18.35;;;9.20;99.90;;;;;;5083749;28;20051;-81
2023/03/21 03:19:46;;;;;;;62.58;19.60;;;9.20;99.90;;;;;;5054673;28;20456;-81
2023/03/21 03:22:20;;;;;;;63.28;20.23;;;9.20;99.90;;;;;;5065112;28;20781;-81
2023/03/21 03:25:04;;;;;;;65.32;21.23;;;9.30;99.90;;;;;;5059481;28;20049;-82
2023/03/21 03:27:36;;;;;;;71.15;21.38;;;9.30;99.90;;;;;;5066855;28;20098;-83
2023/03/21 03:30:04;;;;;;;75.35;22.90;;;9.20;99.90;;;;;;5071684;28;20048;-82
2023/03/21 03:32:43;;;;;;;78.35;22.73;;;9.20;99.90;;;;;;5068428;28;20094;-81
2023/03/21 03:35:12;;;;;;;79.32;23.27;;;9.30;99.90;;;;;;5068612;28;20131;-81
2023/03/21 03:37:39;;;;;;;77.53;21.85;;;9.30;99.90;;;;;;5062247;28;20067;-80
2023/03/21 03:40:12;;;;;;;79.60;22.38;;;9.30;99.90;;;;;;5067740;28;20044;-81
2023/03/21 03:42:45;;;;;;;76.07;21.63;;;9.20;99.90;;;;;;5059750;28;20045;-80
2023/03/21 03:45:11;;;;;;;82.22;21.75;;;9.30;99.90;;;;;;5058972;28;20123;-81
2023/03/21 03:47:55;;;;;;;85.13;22.33;;;9.30;99.90;;;;;;5073822;28;20056;-81
2023/03/21 03:50:30;;;;;;;78.47;21.10;;;9.30;99.90;;;;;;5073261;28;20042;-85
2023/03/21 03:53:24;;;;;;;75.30;20.05;;;9.30;99.90;;;;;;5061905;28;20405;-81
2023/03/21 03:55:53;;;;;;;68.40;19.50;;;9.30;99.90;;;;;;5074214;28;20063;-81
2023/03/21 03:58:19;;;;;;;65.25;17.70;;;9.30;99.90;;;;;;5066422;28;20055;-82
2023/03/21 04:00:46;;;;;;;62.47;17.08;;;9.30;99.90;;;;;;5070813;28;20046;-82
2023/03/21 04:03:12;;;;;;;67.40;17.88;;;9.30;99.90;;;;;;5061718;28;20047;-80
2023/03/21 04:05:37;;;;;;;66.72;18.42;;;9.30;99.90;;;;;;5057048;28;20044;-80
2023/03/21 04:08:03;;;;;;;64.50;17.65;;;9.30;99.90;;;;;;5058674;28;20151;-81
2023/03/21 04:10:29;;;;;;;50.35;16.08;;;9.30;99.90;;;;;;5079512;28;20473;-81
2023/03/21 04:12:55;;;;;;;58.42;15.85;;;9.30;99.90;;;;;;5046267;28;20052;-81
2023/03/21 04:15:20;;;;;;;57.67;16.60;;;9.30;99.90;;;;;;5054583;28;20465;-85
2023/03/21 04:17:46;;;;;;;55.22;15.80;;;9.30;99.90;;;;;;5089299;28;20431;-81
2023/03/21 04:20:12;;;;;;;55.45;15.02;;;9.30;99.90;;;;;;5075705;28;20051;-80
2023/03/21 04:22:38;;;;;;;50.10;15.32;;;9.30;99.90;;;;;;5067430;28;20040;-81
2023/03/21 04:25:05;;;;;;;51.03;15.10;;;9.30;99.90;;;;;;5071775;28;20105;-81
2023/03/21 04:27:32;;;;;;;58.90;15.50;;;9.30;99.90;;;;;;5066865;28;20505;-81
2023/03/21 04:29:58;;;;;;;50.97;14.68;;;9.30;99.90;;;;;;5054547;28;20085;-80
2023/03/21 04:32:25;;;;;;;56.97;16.08;;;9.30;99.90;;;;;;5065663;28;20382;-81
2023/03/21 04:34:52;;;;;;;53.33;15.15;;;9.30;99.90;;;;;;5059258;28;20044;-81
2023/03/21 04:37:22;;;;;;;55.63;15.90;;;9.20;99.90;;;;;;5052054;28;20123;-80
2023/03/21 04:39:49;;;;;;;60.58;16.23;;;9.30;99.90;;;;;;5067569;28;20476;-81
2023/03/21 04:42:19;;;;;;;56.15;15.50;;;9.30;99.90;;;;;;5061269;28;20053;-81
2023/03/21 04:44:46;;;;;;;55.50;15.73;;;9.30;99.90;;;;;;5069530;28;20105;-81
2023/03/21 04:47:14;;;;;;;58.20;16.00;;;9.30;99.90;;;;;;5070133;28;20636;-80
2023/03/21 04:49:41;;;;;;;54.38;16.35;;;9.30;99.90;;;;;;5071152;28;20052;-81
2023/03/21 04:52:07;;;;;;;57.15;17.05;;;9.30;99.90;;;;;;5056109;28;20466;-81
2023/03/21 04:54:32;;;;;;;54.35;16.70;;;9.30;99.90;;;;;;5071028;28;20138;-80
2023/03/21 04:56:58;;;;;;;54.17;16.27;;;9.30;99.90;;;;;;5076186;28;20055;-83
2023/03/21 04:59:25;;;;;;;50.50;16.27;;;9.30;99.90;;;;;;5099030;28;20052;-81
2023/03/21 05:01:51;;;;;;;56.10;16.13;;;9.30;99.90;;;;;;5070804;28;20215;-84
2023/03/21 05:04:16;;;;;;;53.22;15.90;;;9.30;99.90;;;;;;5052470;28;21322;-81
2023/03/21 05:06:44;;;;;;;55.55;16.80;;;9.20;99.90;;;;;;5074423;28;20047;-81
2023/03/21 05:09:10;;;;;;;52.70;16.77;;;9.30;99.90;;;;;;5074626;28;20431;-81
2023/03/21 05:11:37;;;;;;;62.25;18.25;;;9.30;99.90;;;;;;5081923;28;20059;-80
2023/03/21 05:14:05;;;;;;;69.57;18.98;;;9.30;99.90;;;;;;5084179;28;20048;-81
2023/03/21 05:16:33;;;;;;;62.60;17.85;;;9.30;99.90;;;;;;5053367;28;20048;-80
2023/03/21 05:19:03;;;;;;;68.20;20.20;;;9.30;99.90;;;;;;5103647;28;20101;-83
2023/03/21 05:21:40;;;;;;;61.05;19.67;;;9.30;99.90;;;;;;5056268;28;20048;-80
2023/03/21 05:24:11;;;;;;;72.15;20.27;;;9.20;99.90;;;;;;5061785;28;20044;-80
2023/03/21 05:26:40;;;;;;;60.45;20.73;;;9.30;99.90;;;;;;5073101;28;20393;-80
2023/03/21 05:29:07;;;;;;;68.40;20.20;;;9.30;99.90;;;;;;5051650;28;20044;-80
2023/03/21 05:31:32;;;;;;;72.40;21.50;;;9.30;99.90;;;;;;5070155;28;20044;-80
2023/03/21 05:33:58;;;;;;;75.03;21.85;;;9.30;99.90;;;;;;5071558;28;20500;-79
2023/03/21 05:36:24;;;;;;;75.90;20.83;;;9.30;99.90;;;;;;5082183;28;20173;-81
2023/03/21 05:38:50;;;;;;;76.63;22.35;;;9.30;99.90;;;;;;5082292;28;20481;-80
2023/03/21 05:41:17;;;;;;;67.40;22.05;;;9.20;99.90;;;;;;5058068;28;20039;-81
2023/03/21 05:43:43;;;;;;;74.43;22.40;;;9.30;99.90;;;;;;5059712;28;20090;-80
2023/03/21 05:46:10;;;;;;;84.50;22.60;;;9.20;99.90;;;;;;5059668;28;20059;-82
2023/03/21 05:48:36;;;;;;;69.68;21.92;;;9.30;99.90;;;;;;5058213;28;20092;-84
2023/03/21 05:51:03;;;;;;;79.47;23.38;;;9.30;99.90;;;;;;5065553;28;20040;-80
2023/03/21 05:53:29;;;;;;;76.40;22.80;;;9.30;99.90;;;;;;5042487;28;20059;-82
2023/03/21 05:55:55;;;;;;;73.57;22.83;;;9.30;99.90;;;;;;5052918;28;20048;-79
2023/03/21 05:58:21;;;;;;;70.95;22.67;;;9.20;99.90;;;;;;5080507;28;20093;-79
2023/03/21 06:00:47;;;;;;;71.38;22.55;;;9.30;99.90;;;;;;5094696;28;20032;-80
2023/03/21 06:03:12;;;;;;;75.30;23.58;;;9.30;99.90;;;;;;5068974;28;20044;-79
2023/03/21 06:05:38;;;;;;;76.38;24.80;;;9.30;99.90;;;;;;5041451;28;20425;-84
2023/03/21 06:08:04;;;;;;;75.53;23.45;;;9.30;99.90;;;;;;5042086;28;20048;-82
2023/03/21 06:10:30;;;;;;;66.75;22.35;;;9.30;99.90;;;;;;5070440;28;20045;-81
2023/03/21 06:12:55;;;;;;;76.55;23.48;;;9.30;99.90;;;;;;5066174;28;20053;-83
2023/03/21 06:15:21;;;;;;;72.00;23.60;;;9.30;99.90;;;;;;5059025;28;20076;-80
2023/03/21 06:17:47;;;;;;;69.38;22.77;;;9.30;99.90;;;;;;5082949;28;20043;-80
2023/03/21 06:20:13;;;;;;;73.65;24.90;;;9.30;99.90;;;;;;5070563;28;20551;-82
2023/03/21 06:22:39;;;;;;;75.47;25.38;;;9.30;99.90;;;;;;5056148;28;20055;-82
2023/03/21 06:25:06;;;;;;;81.15;23.98;;;9.30;99.90;;;;;;5053442;28;20040;-82
2023/03/21 06:27:32;;;;;;;70.50;23.52;;;9.30;99.90;;;;;;5087438;28;20043;-82
2023/03/21 06:29:58;;;;;;;74.13;24.10;;;9.30;99.90;;;;;;5053684;28;20526;-80
2023/03/21 06:32:24;;;;;;;76.72;23.90;;;9.30;99.90;;;;;;5058253;28;20058;-82
2023/03/21 06:34:50;;;;;;;72.07;24.17;;;9.30;99.90;;;;;;5068915;28;20505;-82
2023/03/21 06:37:16;;;;;;;67.47;23.17;;;9.30;99.90;;;;;;5083015;28;20043;-81
2023/03/21 06:39:42;;;;;;;71.35;23.33;;;9.30;99.90;;;;;;5074919;28;20096;-81
2023/03/21 06:42:07;;;;;;;65.20;23.08;;;9.30;99.90;;;;;;5069456;28;20537;-81
2023/03/21 06:44:33;;;;;;;70.55;23.48;;;9.30;99.90;;;;;;5058123;28;20048;-81
2023/03/21 06:46:59;;;;;;;70.50;22.48;;;9.30;99.90;;;;;;5063189;28;20138;-83
2023/03/21 06:49:26;;;;;;;73.97;24.33;;;9.30;99.90;;;;;;5081322;28;20052;-83
2023/03/21 06:51:52;;;;;;;71.22;23.30;;;9.30;99.90;;;;;;5073653;28;20110;-81
2023/03/21 06:54:18;;;;;;;65.78;23.38;;;9.40;99.90;;;;;;5042451;28;20105;-78
2023/03/21 06:56:45;;;;;;;64.72;22.13;;;9.30;99.90;;;;;;5065406;28;20485;-78
2023/03/21 06:59:10;;;;;;;64.95;22.20;;;9.40;99.90;;;;;;5057644;28;20600;-82
2023/03/21 07:01:36;;;;;;;59.92;22.23;;;9.40;99.90;;;;;;5069847;28;20037;-82
2023/03/21 07:04:03;;;;;;;61.20;21.50;;;9.40;99.90;;;;;;5051825;28;21653;-83
2023/03/21 07:06:29;;;;;;;59.28;21.15;;;9.40;99.90;;;;;;5071924;28;20047;-84
2023/03/21 07:08:55;;;;;;;62.88;22.27;;;9.40;99.90;;;;;;5068151;28;20495;-82
2023/03/21 07:11:22;;;;;;;59.60;21.20;;;9.40;99.90;;;;;;5079100;28;20100;-82
2023/03/21 07:13:48;;;;;;;55.72;20.00;;;9.40;99.90;;;;;;5042676;28;20128;-84
2023/03/21 07:16:15;;;;;;;56.08;19.58;;;9.50;99.90;;;;;;5055434;28;20484;-84
2023/03/21 07:18:41;;;;;;;64.07;20.83;;;9.50;99.90;;;;;;5060652;28;20050;-82
2023/03/21 07:21:08;;;;;;;55.72;19.70;;;9.50;99.90;;;;;;5072722;28;20122;-82
2023/03/21 07:23:34;;;;;;;53.70;18.42;;;9.60;99.90;;;;;;5018100;28;20326;-82
2023/03/21 07:26:00;;;;;;;48.47;17.90;;;9.60;99.90;;;;;;5065613;28;20532;-82
2023/03/21 07:28:26;;;;;;;43.33;16.98;;;9.60;99.90;;;;;;5062150;28;20428;-82
2023/03/21 07:30:58;;;;;;;45.08;16.65;;;9.60;99.90;;;;;;5067652;28;20505;-85
2023/03/21 07:33:25;;;;;;;39.20;14.27;;;9.60;99.90;;;;;;5070667;28;20568;-83
2023/03/21 07:35:51;;;;;;;31.35;13.25;;;9.60;99.90;;;;;;5056007;28;20669;-84
2023/03/21 07:38:19;;;;;;;29.60;12.65;;;9.60;99.90;;;;;;5075637;28;20064;-82
2023/03/21 07:40:46;;;;;;;28.85;12.60;;;9.70;99.90;;;;;;5074376;28;20039;-82
2023/03/21 07:43:13;;;;;;;25.67;11.20;;;9.60;99.90;;;;;;5060152;28;20035;-81
2023/03/21 07:45:39;;;;;;;32.13;12.50;;;9.60;99.90;;;;;;5065628;28;20044;-80
2023/03/21 07:48:05;;;;;;;30.48;11.85;;;9.60;99.90;;;;;;5040329;28;20505;-82
2023/03/21 07:50:30;;;;;;;27.55;12.80;;;9.60;99.90;;;;;;5058277;28;20101;-82
2023/03/21 07:52:56;;;;;;;27.98;12.90;;;9.60;99.90;;;;;;5037674;28;20416;-84
2023/03/21 07:55:22;;;;;;;25.80;13.07;;;9.60;99.90;;;;;;5062410;28;20542;-82
2023/03/21 07:57:51;;;;;;;30.17;14.65;;;9.60;99.90;;;;;;5063478;28;20066;-82
2023/03/21 08:00:21;;;;;;;27.92;13.77;;;9.60;99.90;;;;;;5054881;28;20104;-82
2023/03/21 08:02:53;;;;;;;28.10;14.50;;;9.60;99.90;;;;;;5057026;28;20482;-82
2023/03/21 08:05:39;;;;;;;32.63;15.18;;;9.60;99.90;;;;;;5061118;28;20056;-83
2023/03/21 08:08:06;;;;;;;29.50;14.88;;;9.60;99.90;;;;;;5080213;28;20051;-82
2023/03/21 08:10:32;;;;;;;30.15;14.70;;;9.60;99.90;;;;;;5058773;28;20130;-82
2023/03/21 08:12:58;;;;;;;34.13;15.90;;;9.60;99.90;;;;;;5055094;28;20043;-83
2023/03/21 08:15:23;;;;;;;34.25;15.43;;;9.60;99.90;;;;;;5037061;28;20044;-82
2023/03/21 08:17:49;;;;;;;33.08;16.08;;;9.70;99.90;;;;;;5033138;28;20131;-83
2023/03/21 08:20:20;;;;;;;30.23;16.25;;;9.60;99.90;;;;;;5056561;28;20548;-81
2023/03/21 08:22:46;;;;;;;36.88;17.30;;;9.60;99.90;;;;;;5059537;28;20040;-83
2023/03/21 08:25:13;;;;;;;41.63;18.10;;;9.70;99.90;;;;;;5037243;28;20722;-81
2023/03/21 08:27:41;;;;;;;34.17;17.38;;;9.70;99.90;;;;;;5076551;28;20054;-82
2023/03/21 08:30:09;;;;;;;32.92;16.38;;;9.70;99.90;;;;;;5078723;28;20047;-81
2023/03/21 08:32:37;;;;;;;38.38;17.95;;;9.70;99.90;;;;;;5065361;28;20044;-81
2023/03/21 08:35:06;;;;;;;33.33;15.60;;;9.70;99.90;;;;;;5038167;28;20056;-81
2023/03/21 08:37:33;;;;;;;35.65;17.38;;;9.70;99.90;;;;;;5071401;28;20182;-81
2023/03/21 08:39:58;;;;;;;26.92;13.77;;;9.70;99.90;;;;;;5069464;28;20655;-83
2023/03/21 08:42:26;;;;;;;30.33;14.82;;;9.70;99.90;;;;;;5054902;28;20448;-81
2023/03/21 08:44:51;;;;;;;30.20;15.32;;;9.70;99.90;;;;;;5057068;28;20090;-81
2023/03/21 08:47:17;;;;;;;30.17;15.30;;;9.70;99.90;;;;;;5037318;28;20079;-81
2023/03/21 08:49:44;;;;;;;32.40;15.98;;;9.70;99.90;;;;;;5070136;28;20056;-81
2023/03/21 08:52:11;;;;;;;33.05;16.30;;;9.80;99.90;;;;;;5059025;28;20040;-81
2023/03/21 08:54:37;;;;;;;30.83;15.60;;;9.90;99.90;;;;;;5066556;28;20385;-82
2023/03/21 08:57:05;;;;;;;35.47;17.38;;;9.90;99.90;;;;;;5039414;28;20040;-83
2023/03/21 08:59:31;;;;;;;30.08;16.08;;;9.90;99.90;;;;;;5047633;28;20407;-81
2023/03/21 09:01:56;;;;;;;29.67;15.75;;;9.90;99.90;;;;;;5029883;28;20039;-81
2023/03/21 09:04:24;;;;;;;32.90;16.17;;;9.90;99.90;;;;;;5040862;28;20303;-83
2023/03/21 09:06:50;;;;;;;32.45;16.42;;;9.80;99.90;;;;;;5049505;28;20113;-81
2023/03/21 09:09:16;;;;;;;34.67;16.35;;;9.80;99.90;;;;;;5054984;28;20048;-82
2023/03/21 09:11:43;;;;;;;30.92;16.50;;;9.80;99.90;;;;;;5057245;28;20052;-81
2023/03/21 09:14:09;;;;;;;38.63;16.77;;;9.80;99.90;;;;;;5047133;28;20134;-82
2023/03/21 09:16:34;;;;;;;37.70;17.27;;;9.80;99.90;;;;;;5068697;28;20180;-82
2023/03/21 09:19:03;;;;;;;35.45;17.17;;;9.80;99.90;;;;;;5054321;28;20044;-81
2023/03/21 09:21:30;;;;;;;44.85;19.00;;;9.90;99.90;;;;;;5067265;28;20097;-80
2023/03/21 09:23:58;;;;;;;40.50;20.23;;;9.90;99.90;;;;;;5070778;28;20043;-81
2023/03/21 09:26:25;;;;;;;39.75;19.77;;;9.90;99.90;;;;;;5063441;28;20655;-81
2023/03/21 09:28:52;;;;;;;44.65;20.80;;;9.90;99.90;;;;;;5060827;28;20566;-80
2023/03/21 09:31:21;;;;;;;45.13;22.23;;;9.90;99.90;;;;;;5041527;28;20050;-81
2023/03/21 09:33:48;;;;;;;47.83;22.60;;;9.90;99.90;;;;;;5045313;28;20059;-83
2023/03/21 09:36:17;;;;;;;49.38;23.05;;;9.90;99.90;;;;;;5034725;28;20055;-81
2023/03/21 09:38:44;;;;;;;51.13;23.83;;;9.80;99.90;;;;;;5064780;28;20501;-81
2023/03/21 09:41:36;;;;;;;57.90;24.83;;;9.80;99.90;;;;;;5081138;28;20071;-80
2023/03/21 09:44:24;;;;;;;50.33;23.58;;;9.80;99.90;;;;;;5046775;28;20055;-81
2023/03/21 09:46:57;;;;;;;52.50;25.25;;;9.80;99.90;;;;;;5068966;28;20104;-81
2023/03/21 09:49:31;;;;;;;50.95;23.58;;;9.80;99.90;;;;;;5074877;28;20063;-82
2023/03/21 09:52:05;;;;;;;57.83;24.92;;;9.80;99.90;;;;;;5075546;28;20047;-82
2023/03/21 09:54:37;;;;;;;58.35;25.45;;;9.80;99.90;;;;;;5069539;28;20405;-82
2023/03/21 09:57:34;;;;;;;50.55;24.67;;;9.90;99.90;;;;;;5070122;28;20052;-82
2023/03/21 10:00:08;;;;;;;48.55;23.55;;;9.90;99.90;;;;;;5070533;28;20036;-81
2023/03/21 10:02:37;;;;;;;53.08;24.83;;;9.80;99.90;;;;;;5080280;28;20047;-82
2023/03/21 10:05:12;;;;;;;57.25;26.83;;;9.70;99.90;;;;;;5066489;28;20069;-81
2023/03/21 10:07:59;;;;;;;60.22;26.65;;;9.60;99.90;;;;;;5065320;28;20113;-81
2023/03/21 10:10:35;;;;;;;55.28;25.85;;;9.60;99.90;;;;;;5054169;28;20044;-81
2023/03/21 10:13:01;;;;;;;;;;;9.70;99.90;;;;;;5067594;28;20040;-82
2023/03/21 10:15:27;;;;;;;58.72;27.33;;;9.60;99.90;;;;;;5073514;28;19920;-82
2023/03/21 10:18:04;;;;;;;61.13;26.20;;;9.60;99.90;;;;;;5059546;28;20049;-81
2023/03/21 10:20:36;;;;;;;63.85;27.98;;;9.70;99.90;;;;;;5067917;28;20296;-82
2023/03/21 10:23:11;;;;;;;61.47;28.08;;;9.60;99.90;;;;;;5059756;28;20040;-81
2023/03/21 10:25:46;;;;;;;57.70;25.33;;;9.70;99.90;;;;;;5063225;28;20076;-82
2023/03/21 10:28:19;;;;;;;62.97;26.27;;;9.70;99.90;;;;;;5089141;28;20040;-83
2023/03/21 10:30:57;;;;;;;52.58;24.95;;;9.70;99.90;;;;;;5072842;28;20079;-82
2023/03/21 10:33:27;;;;;;;53.80;24.88;;;9.80;99.90;;;;;;5072972;28;20044;-81
2023/03/21 10:36:01;;;;;;;54.35;24.00;;;9.90;99.90;;;;;;5057354;28;20043;-81
2023/03/21 10:38:28;;;;;;;62.55;26.10;;;9.90;99.90;;;;;;5070579;28;20055;-81
2023/03/21 10:40:55;;;;;;;54.10;24.23;;;9.90;99.90;;;;;;5056520;28;20123;-82
2023/03/21 10:43:26;;;;;;;51.30;23.38;;;9.90;99.90;;;;;;5065303;28;20119;-82
2023/03/21 10:45:54;;;;;;;52.45;23.90;;;10.00;99.90;;;;;;5073201;28;20044;-82
2023/03/21 10:48:20;;;;;;;56.08;24.13;;;10.10;99.90;;;;;;5070955;28;20048;-82
2023/03/21 10:50:52;;;;;;;59.17;25.08;;;10.10;99.90;;;;;;5073463;28;20044;-82
2023/03/21 10:53:21;;;;;;;53.92;25.15;;;10.20;99.90;;;;;;5071355;28;20097;-84
2023/03/21 10:55:51;;;;;;;53.83;23.10;;;10.20;99.90;;;;;;5066011;28;20040;-83
2023/03/21 10:58:26;;;;;;;54.65;23.88;;;10.30;99.90;;;;;;5044707;28;20131;-83
2023/03/21 11:01:03;;;;;;;54.97;23.90;;;10.30;99.90;;;;;;5061601;28;20071;-83
2023/03/21 11:03:32;;;;;;;49.90;23.65;;;10.40;99.90;;;;;;5064067;28;20058;-83
2023/03/21 11:06:10;;;;;;;46.75;22.80;;;10.50;99.90;;;;;;5046045;28;20062;-83
2023/03/21 11:08:49;;;;;;;53.20;24.85;;;10.50;99.90;;;;;;5083802;28;20569;-83
2023/03/21 11:11:26;;;;;;;46.47;22.85;;;10.60;99.90;;;;;;5043235;28;20049;-83
2023/03/21 11:14:07;;;;;;;47.13;22.67;;;10.80;99.90;;;;;;5059753;28;20041;-83
2023/03/21 11:16:36;;;;;;;46.35;23.10;;;11.00;99.90;;;;;;5059498;28;20124;-83
2023/03/21 11:19:11;;;;;;;42.38;20.88;;;11.20;99.90;;;;;;5066990;28;20054;-83
2023/03/21 11:21:38;;;;;;;39.17;20.35;;;11.20;99.90;;;;;;5061140;28;20052;-83
2023/03/21 11:24:05;;;;;;;42.08;19.58;;;11.30;99.90;;;;;;5060967;28;21458;-83
2023/03/21 11:26:35;;;;;;;41.28;21.25;;;11.30;99.90;;;;;;5066589;28;20052;-83
2023/03/21 11:29:11;;;;;;;42.08;20.02;;;11.50;99.90;;;;;;5054887;28;20064;-84
2023/03/21 11:31:38;;;;;;;36.47;18.65;;;11.60;99.90;;;;;;5079680;28;20126;-84
2023/03/21 11:34:07;;;;;;;36.63;19.60;;;11.80;99.90;;;;;;5064523;28;20051;-84
2023/03/21 11:36:39;;;;;;;32.08;17.35;;;11.80;99.90;;;;;;5081411;28;20051;-83
2023/03/21 11:39:23;;;;;;;28.08;16.92;;;11.80;99.90;;;;;;5072750;28;20156;-81
2023/03/21 11:41:51;;;;;;;31.83;17.80;;;11.80;99.90;;;;;;5076040;28;20099;-83
2023/03/21 11:44:33;;;;;;;32.47;16.70;;;11.70;99.90;;;;;;5046041;28;20112;-82
2023/03/21 11:46:59;;;;;;;30.27;15.60;;;11.70;99.90;;;;;;5050114;28;20882;-83
2023/03/21 11:49:26;;;;;;;35.58;17.45;;;11.70;99.90;;;;;;5051005;28;20055;-85
2023/03/21 11:52:12;;;;;;;29.52;15.52;;;11.60;99.90;;;;;;5069012;28;20097;-83
2023/03/21 11:55:07;;;;;;;33.60;16.40;;;11.60;99.90;;;;;;5053965;28;20062;-81
2023/03/21 11:58:00;;;;;;;27.48;15.35;;;11.70;99.90;;;;;;5057499;28;20055;-81
2023/03/21 12:00:31;;;;;;;24.52;14.70;;;11.70;99.90;;;;;;5046548;28;20830;-83
2023/03/21 12:03:26;;;;;;;26.58;14.48;;;11.50;99.90;;;;;;5050337;28;20115;-79
2023/03/21 12:05:55;;;;;;;27.33;14.38;;;11.40;99.90;;;;;;5056185;28;20053;-80
2023/03/21 12:08:49;;;;;;;28.35;14.32;;;11.30;99.90;;;;;;5046624;28;20048;-82
2023/03/21 12:11:33;;;;;;;21.70;13.27;;;11.30;99.90;;;;;;5056444;28;20131;-82
2023/03/21 12:14:26;;;;;;;25.60;13.50;;;11.30;99.90;;;;;;5048686;28;20055;-83
2023/03/21 12:16:58;;;;;;;27.10;13.50;;;11.40;99.90;;;;;;5033826;28;20074;-83
2023/03/21 12:19:45;;;;;;;26.02;14.57;;;11.50;99.90;;;;;;5038286;28;20110;-83
2023/03/21 12:22:52;;;;;;;23.60;13.20;;;11.50;99.90;;;;;;5061060;28;20044;-84
2023/03/21 12:25:22;;;;;;;;;;;11.60;99.90;;;;;;5048126;28;20048;-83
2023/03/21 12:27:50;;;;;;;22.77;12.27;;;11.70;99.90;;;;;;5065308;28;19972;-83
2023/03/21 12:30:23;;;;;;;22.05;11.65;;;11.80;99.90;;;;;;5054810;28;20045;-83
2023/03/21 12:32:51;;;;;;;19.17;11.07;;;11.80;99.90;;;;;;5050937;28;20696;-83
2023/03/21 12:35:20;;;;;;;16.45;9.90;;;11.80;99.90;;;;;;5067899;28;20043;-83
2023/03/21 12:38:00;;;;;;;20.85;10.68;;;11.50;99.90;;;;;;5065675;28;20474;-82
2023/03/21 12:40:35;;;;;;;21.17;11.85;;;11.20;99.90;;;;;;5068415;28;20119;-82
2023/03/21 12:43:23;;;;;;;21.80;10.82;;;11.00;99.90;;;;;;5050344;28;20048;-83
2023/03/21 12:45:58;;;;;;;15.18;9.50;;;10.90;99.90;;;;;;5067211;28;20045;-83
2023/03/21 12:48:59;;;;;;;18.83;11.23;;;10.80;99.90;;;;;;5051497;28;20098;-77
2023/03/21 12:51:31;;;;;;;17.25;10.35;;;10.80;99.90;;;;;;5047355;28;20060;-82
2023/03/21 12:54:23;;;;;;;16.65;9.95;;;10.80;99.90;;;;;;5037978;28;20098;-83
2023/03/21 12:56:56;;;;;;;18.00;10.40;;;10.80;99.90;;;;;;5081318;28;20490;-83